sensor_id;sensor_type;location;lat;lon;timestamp;P1;durP1;ratioP1;P2;durP2;ratioP2
70825;SDS011;58446;41.490;22.098;2022-08-03T00:01:32;7.47;;;3.50;;
70825;SDS011;58446;41.490;22.098;2022-08-03T00:03:58;6.70;;;3.50;;
70825;SDS011;58446;41.490;22.098;2022-08-03T00:06:24;8.10;;;3.35;;
70825;SDS011;58446;41.490;22.098;2022-08-03T00:08:49;6.17;;;3.30;;
70825;SDS011;58446;41.490;22.098;2022-08-03T00:11:15;9.45;;;3.83;;
70825;SDS011;58446;41.490;22.098;2022-08-03T00:13:41;8.07;;;4.00;;
70825;SDS011;58446;41.490;22.098;2022-08-03T00:16:07;6.30;;;3.87;;
70825;SDS011;58446;41.490;22.098;2022-08-03T00:18:34;7.32;;;4.15;;
70825;SDS011;58446;41.490;22.098;2022-08-03T00:21:01;8.63;;;4.53;;
70825;SDS011;58446;41.490;22.098;2022-08-03T00:23:27;8.20;;;4.15;;
70825;SDS011;58446;41.490;22.098;2022-08-03T00:25:53;7.27;;;4.40;;
70825;SDS011;58446;41.490;22.098;2022-08-03T00:28:19;7.33;;;4.50;;
70825;SDS011;58446;41.490;22.098;2022-08-03T00:30:45;6.95;;;4.38;;
70825;SDS011;58446;41.490;22.098;2022-08-03T00:33:10;9.18;;;4.78;;
70825;SDS011;58446;41.490;22.098;2022-08-03T00:35:36;10.03;;;4.80;;
70825;SDS011;58446;41.490;22.098;2022-08-03T00:38:02;8.75;;;4.78;;
70825;SDS011;58446;41.490;22.098;2022-08-03T00:40:27;8.33;;;4.83;;
70825;SDS011;58446;41.490;22.098;2022-08-03T00:42:54;7.93;;;4.88;;
70825;SDS011;58446;41.490;22.098;2022-08-03T00:45:31;9.45;;;5.20;;
70825;SDS011;58446;41.490;22.098;2022-08-03T00:47:58;8.90;;;4.93;;
70825;SDS011;58446;41.490;22.098;2022-08-03T00:50:26;10.40;;;5.05;;
70825;SDS011;58446;41.490;22.098;2022-08-03T00:52:53;8.75;;;4.95;;
70825;SDS011;58446;41.490;22.098;2022-08-03T00:55:20;7.30;;;4.88;;
70825;SDS011;58446;41.490;22.098;2022-08-03T00:57:46;8.80;;;4.85;;
70825;SDS011;58446;41.490;22.098;2022-08-03T01:00:14;8.47;;;5.10;;
70825;SDS011;58446;41.490;22.098;2022-08-03T01:02:42;10.85;;;5.20;;
70825;SDS011;58446;41.490;22.098;2022-08-03T01:05:08;8.32;;;5.05;;
70825;SDS011;58446;41.490;22.098;2022-08-03T01:13:28;8.63;;;4.88;;
70825;SDS011;58446;41.490;22.098;2022-08-03T01:16:18;8.77;;;4.63;;
70825;SDS011;58446;41.490;22.098;2022-08-03T01:19:01;8.65;;;4.65;;
70825;SDS011;58446;41.490;22.098;2022-08-03T01:21:39;8.43;;;4.87;;
70825;SDS011;58446;41.490;22.098;2022-08-03T01:35:11;9.80;;;4.27;;
70825;SDS011;58446;41.490;22.098;2022-08-03T01:37:49;8.13;;;4.65;;
70825;SDS011;58446;41.490;22.098;2022-08-03T01:40:18;8.65;;;4.22;;
70825;SDS011;58446;41.490;22.098;2022-08-03T01:42:46;8.80;;;4.38;;
70825;SDS011;58446;41.490;22.098;2022-08-03T01:45:14;6.90;;;4.07;;
70825;SDS011;58446;41.490;22.098;2022-08-03T01:47:43;8.93;;;4.57;;
70825;SDS011;58446;41.490;22.098;2022-08-03T01:50:11;7.85;;;4.35;;
70825;SDS011;58446;41.490;22.098;2022-08-03T01:52:41;7.90;;;4.80;;
70825;SDS011;58446;41.490;22.098;2022-08-03T01:55:08;8.70;;;4.45;;
70825;SDS011;58446;41.490;22.098;2022-08-03T01:57:37;8.80;;;4.88;;
70825;SDS011;58446;41.490;22.098;2022-08-03T02:00:05;7.20;;;4.67;;
70825;SDS011;58446;41.490;22.098;2022-08-03T02:02:33;7.82;;;4.47;;
70825;SDS011;58446;41.490;22.098;2022-08-03T02:05:02;6.53;;;3.97;;
70825;SDS011;58446;41.490;22.098;2022-08-03T02:07:31;7.78;;;4.70;;
70825;SDS011;58446;41.490;22.098;2022-08-03T02:09:58;8.45;;;4.70;;
70825;SDS011;58446;41.490;22.098;2022-08-03T02:12:25;8.40;;;4.33;;
70825;SDS011;58446;41.490;22.098;2022-08-03T02:14:54;8.32;;;4.60;;
70825;SDS011;58446;41.490;22.098;2022-08-03T02:17:24;9.80;;;4.30;;
70825;SDS011;58446;41.490;22.098;2022-08-03T02:19:52;7.15;;;4.00;;
70825;SDS011;58446;41.490;22.098;2022-08-03T02:22:18;8.90;;;4.32;;
70825;SDS011;58446;41.490;22.098;2022-08-03T02:24:45;8.97;;;4.30;;
70825;SDS011;58446;41.490;22.098;2022-08-03T02:27:21;9.05;;;4.40;;
70825;SDS011;58446;41.490;22.098;2022-08-03T02:29:52;10.05;;;4.72;;
70825;SDS011;58446;41.490;22.098;2022-08-03T02:32:23;9.68;;;4.57;;
70825;SDS011;58446;41.490;22.098;2022-08-03T02:34:53;8.73;;;4.40;;
70825;SDS011;58446;41.490;22.098;2022-08-03T02:37:24;8.10;;;4.20;;
70825;SDS011;58446;41.490;22.098;2022-08-03T02:39:54;7.75;;;4.30;;
70825;SDS011;58446;41.490;22.098;2022-08-03T02:42:25;7.53;;;4.22;;
70825;SDS011;58446;41.490;22.098;2022-08-03T02:44:52;6.70;;;4.40;;
70825;SDS011;58446;41.490;22.098;2022-08-03T02:47:21;7.40;;;4.50;;
70825;SDS011;58446;41.490;22.098;2022-08-03T02:49:48;6.90;;;4.25;;
70825;SDS011;58446;41.490;22.098;2022-08-03T02:52:16;7.50;;;4.03;;
70825;SDS011;58446;41.490;22.098;2022-08-03T02:54:49;8.70;;;4.18;;
70825;SDS011;58446;41.490;22.098;2022-08-03T02:57:17;7.97;;;4.30;;
70825;SDS011;58446;41.490;22.098;2022-08-03T02:59:45;7.93;;;4.87;;
70825;SDS011;58446;41.490;22.098;2022-08-03T03:02:11;7.70;;;4.60;;
70825;SDS011;58446;41.490;22.098;2022-08-03T03:04:40;7.22;;;4.07;;
70825;SDS011;58446;41.490;22.098;2022-08-03T03:07:07;7.05;;;4.70;;
70825;SDS011;58446;41.490;22.098;2022-08-03T03:09:33;9.00;;;4.70;;
70825;SDS011;58446;41.490;22.098;2022-08-03T03:11:59;7.27;;;4.67;;
70825;SDS011;58446;41.490;22.098;2022-08-03T03:14:26;7.20;;;4.68;;
70825;SDS011;58446;41.490;22.098;2022-08-03T03:16:53;7.43;;;4.38;;
70825;SDS011;58446;41.490;22.098;2022-08-03T03:19:19;8.20;;;4.25;;
70825;SDS011;58446;41.490;22.098;2022-08-03T03:21:46;7.47;;;4.68;;
70825;SDS011;58446;41.490;22.098;2022-08-03T03:24:12;7.67;;;4.60;;
70825;SDS011;58446;41.490;22.098;2022-08-03T03:26:38;8.55;;;4.40;;
70825;SDS011;58446;41.490;22.098;2022-08-03T03:29:04;7.50;;;4.85;;
70825;SDS011;58446;41.490;22.098;2022-08-03T03:31:31;7.65;;;4.80;;
70825;SDS011;58446;41.490;22.098;2022-08-03T03:33:57;7.63;;;4.30;;
70825;SDS011;58446;41.490;22.098;2022-08-03T03:36:23;9.82;;;4.90;;
70825;SDS011;58446;41.490;22.098;2022-08-03T03:38:49;9.63;;;4.57;;
70825;SDS011;58446;41.490;22.098;2022-08-03T03:41:15;11.65;;;4.80;;
70825;SDS011;58446;41.490;22.098;2022-08-03T03:43:41;8.32;;;4.28;;
70825;SDS011;58446;41.490;22.098;2022-08-03T03:46:07;8.23;;;4.63;;
70825;SDS011;58446;41.490;22.098;2022-08-03T03:48:33;7.33;;;4.57;;
70825;SDS011;58446;41.490;22.098;2022-08-03T03:51:00;8.02;;;4.32;;
70825;SDS011;58446;41.490;22.098;2022-08-03T03:53:26;9.77;;;4.40;;
70825;SDS011;58446;41.490;22.098;2022-08-03T03:55:52;8.50;;;4.97;;
70825;SDS011;58446;41.490;22.098;2022-08-03T03:58:19;7.95;;;4.60;;
70825;SDS011;58446;41.490;22.098;2022-08-03T04:00:45;6.70;;;4.30;;
70825;SDS011;58446;41.490;22.098;2022-08-03T04:03:10;9.13;;;4.60;;
70825;SDS011;58446;41.490;22.098;2022-08-03T04:05:36;7.55;;;4.13;;
70825;SDS011;58446;41.490;22.098;2022-08-03T04:08:20;9.05;;;4.90;;
70825;SDS011;58446;41.490;22.098;2022-08-03T04:11:26;10.57;;;4.53;;
70825;SDS011;58446;41.490;22.098;2022-08-03T04:16:42;9.40;;;5.05;;
70825;SDS011;58446;41.490;22.098;2022-08-03T04:19:12;10.10;;;4.93;;
70825;SDS011;58446;41.490;22.098;2022-08-03T04:21:42;8.75;;;4.88;;
70825;SDS011;58446;41.490;22.098;2022-08-03T04:24:12;10.50;;;5.20;;
70825;SDS011;58446;41.490;22.098;2022-08-03T04:26:40;10.68;;;5.88;;
70825;SDS011;58446;41.490;22.098;2022-08-03T04:29:08;10.23;;;6.10;;
70825;SDS011;58446;41.490;22.098;2022-08-03T04:31:35;13.48;;;4.95;;
70825;SDS011;58446;41.490;22.098;2022-08-03T04:34:02;10.20;;;5.07;;
70825;SDS011;58446;41.490;22.098;2022-08-03T04:36:31;9.17;;;4.57;;
70825;SDS011;58446;41.490;22.098;2022-08-03T04:39:02;9.45;;;5.15;;
70825;SDS011;58446;41.490;22.098;2022-08-03T04:41:32;12.25;;;6.53;;
70825;SDS011;58446;41.490;22.098;2022-08-03T04:44:00;13.20;;;6.05;;
70825;SDS011;58446;41.490;22.098;2022-08-03T04:46:30;11.38;;;5.30;;
70825;SDS011;58446;41.490;22.098;2022-08-03T04:49:00;10.50;;;6.57;;
70825;SDS011;58446;41.490;22.098;2022-08-03T04:51:26;14.13;;;7.60;;
70825;SDS011;58446;41.490;22.098;2022-08-03T04:53:52;15.23;;;8.40;;
70825;SDS011;58446;41.490;22.098;2022-08-03T04:56:18;12.45;;;8.57;;
70825;SDS011;58446;41.490;22.098;2022-08-03T04:58:43;12.60;;;8.03;;
70825;SDS011;58446;41.490;22.098;2022-08-03T05:01:09;11.48;;;6.95;;
70825;SDS011;58446;41.490;22.098;2022-08-03T05:03:35;11.27;;;6.63;;
70825;SDS011;58446;41.490;22.098;2022-08-03T05:06:01;9.95;;;5.40;;
70825;SDS011;58446;41.490;22.098;2022-08-03T05:08:27;9.07;;;5.30;;
70825;SDS011;58446;41.490;22.098;2022-08-03T05:10:52;11.67;;;5.53;;
70825;SDS011;58446;41.490;22.098;2022-08-03T05:13:18;9.00;;;5.25;;
70825;SDS011;58446;41.490;22.098;2022-08-03T05:15:44;13.40;;;5.73;;
70825;SDS011;58446;41.490;22.098;2022-08-03T05:18:10;9.18;;;4.53;;
70825;SDS011;58446;41.490;22.098;2022-08-03T05:20:35;7.05;;;4.30;;
70825;SDS011;58446;41.490;22.098;2022-08-03T05:23:01;9.67;;;4.27;;
70825;SDS011;58446;41.490;22.098;2022-08-03T05:25:28;8.88;;;4.15;;
70825;SDS011;58446;41.490;22.098;2022-08-03T05:27:54;8.55;;;4.38;;
70825;SDS011;58446;41.490;22.098;2022-08-03T05:30:20;8.30;;;4.53;;
70825;SDS011;58446;41.490;22.098;2022-08-03T05:32:46;9.10;;;4.38;;
70825;SDS011;58446;41.490;22.098;2022-08-03T05:35:11;13.47;;;5.30;;
70825;SDS011;58446;41.490;22.098;2022-08-03T05:37:37;9.13;;;4.18;;
70825;SDS011;58446;41.490;22.098;2022-08-03T05:40:03;9.43;;;3.97;;
70825;SDS011;58446;41.490;22.098;2022-08-03T05:42:29;8.50;;;4.07;;
70825;SDS011;58446;41.490;22.098;2022-08-03T05:44:55;8.47;;;4.03;;
70825;SDS011;58446;41.490;22.098;2022-08-03T05:47:21;8.60;;;4.63;;
70825;SDS011;58446;41.490;22.098;2022-08-03T05:49:47;11.77;;;4.13;;
70825;SDS011;58446;41.490;22.098;2022-08-03T05:52:12;8.85;;;4.38;;
70825;SDS011;58446;41.490;22.098;2022-08-03T05:54:38;7.93;;;4.57;;
70825;SDS011;58446;41.490;22.098;2022-08-03T05:57:04;8.85;;;4.43;;
70825;SDS011;58446;41.490;22.098;2022-08-03T05:59:29;9.03;;;4.30;;
70825;SDS011;58446;41.490;22.098;2022-08-03T06:01:55;8.27;;;3.95;;
70825;SDS011;58446;41.490;22.098;2022-08-03T06:04:21;8.63;;;4.77;;
70825;SDS011;58446;41.490;22.098;2022-08-03T06:06:46;10.68;;;5.05;;
70825;SDS011;58446;41.490;22.098;2022-08-03T06:09:14;7.78;;;4.85;;
70825;SDS011;58446;41.490;22.098;2022-08-03T06:11:41;8.60;;;5.00;;
70825;SDS011;58446;41.490;22.098;2022-08-03T06:14:07;8.95;;;4.53;;
70825;SDS011;58446;41.490;22.098;2022-08-03T06:16:33;8.10;;;4.73;;
70825;SDS011;58446;41.490;22.098;2022-08-03T06:18:59;7.60;;;4.45;;
70825;SDS011;58446;41.490;22.098;2022-08-03T06:21:25;8.52;;;4.10;;
70825;SDS011;58446;41.490;22.098;2022-08-03T06:23:51;7.30;;;4.33;;
70825;SDS011;58446;41.490;22.098;2022-08-03T06:26:17;7.53;;;4.38;;
70825;SDS011;58446;41.490;22.098;2022-08-03T06:28:43;10.38;;;4.53;;
70825;SDS011;58446;41.490;22.098;2022-08-03T06:31:10;10.40;;;4.47;;
70825;SDS011;58446;41.490;22.098;2022-08-03T06:33:35;11.02;;;4.32;;
70825;SDS011;58446;41.490;22.098;2022-08-03T06:36:01;7.03;;;3.67;;
70825;SDS011;58446;41.490;22.098;2022-08-03T06:38:27;9.38;;;4.32;;
70825;SDS011;58446;41.490;22.098;2022-08-03T06:40:53;8.18;;;4.43;;
70825;SDS011;58446;41.490;22.098;2022-08-03T06:43:19;8.37;;;4.70;;
70825;SDS011;58446;41.490;22.098;2022-08-03T06:45:44;7.30;;;4.43;;
70825;SDS011;58446;41.490;22.098;2022-08-03T06:48:10;8.27;;;4.28;;
70825;SDS011;58446;41.490;22.098;2022-08-03T06:50:38;8.77;;;4.57;;
70825;SDS011;58446;41.490;22.098;2022-08-03T06:53:05;10.32;;;5.18;;
70825;SDS011;58446;41.490;22.098;2022-08-03T06:55:31;10.30;;;5.22;;
70825;SDS011;58446;41.490;22.098;2022-08-03T06:57:57;13.95;;;6.75;;
70825;SDS011;58446;41.490;22.098;2022-08-03T07:00:23;10.90;;;6.55;;
70825;SDS011;58446;41.490;22.098;2022-08-03T07:02:49;10.07;;;5.80;;
70825;SDS011;58446;41.490;22.098;2022-08-03T07:05:15;9.40;;;5.57;;
70825;SDS011;58446;41.490;22.098;2022-08-03T07:07:41;9.07;;;4.85;;
70825;SDS011;58446;41.490;22.098;2022-08-03T07:10:07;9.23;;;5.03;;
70825;SDS011;58446;41.490;22.098;2022-08-03T07:12:34;10.17;;;4.67;;
70825;SDS011;58446;41.490;22.098;2022-08-03T07:15:01;6.85;;;4.15;;
70825;SDS011;58446;41.490;22.098;2022-08-03T07:17:29;7.25;;;3.78;;
70825;SDS011;58446;41.490;22.098;2022-08-03T07:19:57;16.90;;;8.75;;
70825;SDS011;58446;41.490;22.098;2022-08-03T07:22:23;8.18;;;4.90;;
70825;SDS011;58446;41.490;22.098;2022-08-03T07:24:49;7.53;;;4.03;;
70825;SDS011;58446;41.490;22.098;2022-08-03T07:27:15;7.20;;;4.18;;
70825;SDS011;58446;41.490;22.098;2022-08-03T07:29:41;9.63;;;4.00;;
70825;SDS011;58446;41.490;22.098;2022-08-03T07:32:07;6.35;;;3.90;;
70825;SDS011;58446;41.490;22.098;2022-08-03T07:34:32;7.78;;;4.13;;
70825;SDS011;58446;41.490;22.098;2022-08-03T07:36:58;8.40;;;4.17;;
70825;SDS011;58446;41.490;22.098;2022-08-03T07:39:24;8.38;;;4.82;;
70825;SDS011;58446;41.490;22.098;2022-08-03T07:41:50;8.50;;;3.40;;
70825;SDS011;58446;41.490;22.098;2022-08-03T07:44:16;7.38;;;4.20;;
70825;SDS011;58446;41.490;22.098;2022-08-03T07:46:42;7.72;;;4.03;;
70825;SDS011;58446;41.490;22.098;2022-08-03T07:49:08;8.47;;;4.20;;
70825;SDS011;58446;41.490;22.098;2022-08-03T07:51:34;9.10;;;4.28;;
70825;SDS011;58446;41.490;22.098;2022-08-03T07:53:59;8.13;;;3.70;;
70825;SDS011;58446;41.490;22.098;2022-08-03T07:56:25;9.00;;;4.40;;
70825;SDS011;58446;41.490;22.098;2022-08-03T07:58:52;7.47;;;4.00;;
70825;SDS011;58446;41.490;22.098;2022-08-03T08:01:19;7.00;;;4.07;;
70825;SDS011;58446;41.490;22.098;2022-08-03T08:03:45;7.87;;;3.90;;
70825;SDS011;58446;41.490;22.098;2022-08-03T08:06:11;8.48;;;4.03;;
70825;SDS011;58446;41.490;22.098;2022-08-03T08:08:37;6.65;;;3.63;;
70825;SDS011;58446;41.490;22.098;2022-08-03T08:11:04;8.90;;;4.10;;
70825;SDS011;58446;41.490;22.098;2022-08-03T08:13:30;8.73;;;4.23;;
70825;SDS011;58446;41.490;22.098;2022-08-03T08:15:56;7.15;;;4.45;;
70825;SDS011;58446;41.490;22.098;2022-08-03T08:18:21;8.02;;;3.92;;
70825;SDS011;58446;41.490;22.098;2022-08-03T08:20:53;7.32;;;3.90;;
70825;SDS011;58446;41.490;22.098;2022-08-03T08:23:19;7.67;;;3.30;;
70825;SDS011;58446;41.490;22.098;2022-08-03T08:25:49;10.10;;;3.85;;
70825;SDS011;58446;41.490;22.098;2022-08-03T08:28:16;7.60;;;3.58;;
70825;SDS011;58446;41.490;22.098;2022-08-03T08:30:42;8.38;;;4.35;;
70825;SDS011;58446;41.490;22.098;2022-08-03T08:33:08;7.23;;;4.50;;
70825;SDS011;58446;41.490;22.098;2022-08-03T08:35:34;6.60;;;3.95;;
70825;SDS011;58446;41.490;22.098;2022-08-03T08:38:01;8.43;;;4.30;;
70825;SDS011;58446;41.490;22.098;2022-08-03T08:40:27;8.30;;;4.50;;
70825;SDS011;58446;41.490;22.098;2022-08-03T08:42:53;7.20;;;3.83;;
70825;SDS011;58446;41.490;22.098;2022-08-03T08:45:19;8.07;;;3.60;;
70825;SDS011;58446;41.490;22.098;2022-08-03T08:47:46;6.00;;;3.60;;
70825;SDS011;58446;41.490;22.098;2022-08-03T08:50:17;7.57;;;3.83;;
70825;SDS011;58446;41.490;22.098;2022-08-03T08:52:46;7.18;;;4.15;;
70825;SDS011;58446;41.490;22.098;2022-08-03T08:55:14;8.32;;;3.70;;
70825;SDS011;58446;41.490;22.098;2022-08-03T08:57:46;8.75;;;3.42;;
70825;SDS011;58446;41.490;22.098;2022-08-03T09:00:14;6.77;;;3.60;;
70825;SDS011;58446;41.490;22.098;2022-08-03T09:02:41;7.93;;;3.53;;
70825;SDS011;58446;41.490;22.098;2022-08-03T09:05:11;7.18;;;3.53;;
70825;SDS011;58446;41.490;22.098;2022-08-03T09:07:38;6.72;;;3.45;;
70825;SDS011;58446;41.490;22.098;2022-08-03T09:10:05;7.63;;;3.10;;
70825;SDS011;58446;41.490;22.098;2022-08-03T09:12:39;6.37;;;3.37;;
70825;SDS011;58446;41.490;22.098;2022-08-03T09:17:44;6.90;;;3.80;;
70825;SDS011;58446;41.490;22.098;2022-08-03T09:20:10;7.53;;;3.67;;
70825;SDS011;58446;41.490;22.098;2022-08-03T09:22:47;7.10;;;3.23;;
70825;SDS011;58446;41.490;22.098;2022-08-03T09:25:18;7.78;;;3.67;;
70825;SDS011;58446;41.490;22.098;2022-08-03T09:27:44;7.13;;;3.70;;
70825;SDS011;58446;41.490;22.098;2022-08-03T09:30:14;6.57;;;3.77;;
70825;SDS011;58446;41.490;22.098;2022-08-03T09:32:41;8.57;;;3.67;;
70825;SDS011;58446;41.490;22.098;2022-08-03T09:35:09;7.13;;;3.50;;
70825;SDS011;58446;41.490;22.098;2022-08-03T09:37:35;6.95;;;3.40;;
70825;SDS011;58446;41.490;22.098;2022-08-03T09:40:02;8.70;;;3.55;;
70825;SDS011;58446;41.490;22.098;2022-08-03T09:42:28;6.27;;;3.00;;
70825;SDS011;58446;41.490;22.098;2022-08-03T09:44:54;5.80;;;2.97;;
70825;SDS011;58446;41.490;22.098;2022-08-03T09:47:28;7.15;;;2.70;;
70825;SDS011;58446;41.490;22.098;2022-08-03T09:49:59;6.93;;;3.63;;
70825;SDS011;58446;41.490;22.098;2022-08-03T09:52:31;6.23;;;2.93;;
70825;SDS011;58446;41.490;22.098;2022-08-03T09:55:01;7.63;;;3.22;;
70825;SDS011;58446;41.490;22.098;2022-08-03T09:57:32;5.85;;;3.00;;
70825;SDS011;58446;41.490;22.098;2022-08-03T10:00:05;5.97;;;2.67;;
70825;SDS011;58446;41.490;22.098;2022-08-03T10:02:36;6.43;;;3.33;;
70825;SDS011;58446;41.490;22.098;2022-08-03T10:05:03;8.75;;;2.42;;
70825;SDS011;58446;41.490;22.098;2022-08-03T10:07:39;5.38;;;2.92;;
70825;SDS011;58446;41.490;22.098;2022-08-03T10:10:13;4.95;;;2.45;;
70825;SDS011;58446;41.490;22.098;2022-08-03T10:12:40;5.53;;;2.45;;
70825;SDS011;58446;41.490;22.098;2022-08-03T10:15:07;5.53;;;2.33;;
70825;SDS011;58446;41.490;22.098;2022-08-03T10:17:34;5.70;;;2.33;;
70825;SDS011;58446;41.490;22.098;2022-08-03T10:20:00;6.78;;;2.38;;
70825;SDS011;58446;41.490;22.098;2022-08-03T10:22:35;5.45;;;2.10;;
70825;SDS011;58446;41.490;22.098;2022-08-03T10:27:38;6.50;;;2.20;;
70825;SDS011;58446;41.490;22.098;2022-08-03T10:30:06;5.80;;;2.00;;
70825;SDS011;58446;41.490;22.098;2022-08-03T10:32:47;5.18;;;2.20;;
70825;SDS011;58446;41.490;22.098;2022-08-03T10:35:19;5.45;;;2.00;;
70825;SDS011;58446;41.490;22.098;2022-08-03T10:40:19;5.00;;;2.10;;
70825;SDS011;58446;41.490;22.098;2022-08-03T10:42:47;5.72;;;1.92;;
70825;SDS011;58446;41.490;22.098;2022-08-03T10:45:19;4.57;;;1.75;;
70825;SDS011;58446;41.490;22.098;2022-08-03T10:47:49;5.60;;;2.33;;
70825;SDS011;58446;41.490;22.098;2022-08-03T10:50:16;5.72;;;1.80;;
70825;SDS011;58446;41.490;22.098;2022-08-03T11:01:02;5.38;;;2.53;;
70825;SDS011;58446;41.490;22.098;2022-08-03T11:03:29;6.43;;;1.90;;
70825;SDS011;58446;41.490;22.098;2022-08-03T11:06:15;4.83;;;2.20;;
70825;SDS011;58446;41.490;22.098;2022-08-03T11:08:43;5.82;;;1.95;;
70825;SDS011;58446;41.490;22.098;2022-08-03T11:13:55;5.63;;;1.92;;
70825;SDS011;58446;41.490;22.098;2022-08-03T11:16:39;5.18;;;2.05;;
70825;SDS011;58446;41.490;22.098;2022-08-03T11:19:51;5.33;;;2.50;;
70825;SDS011;58446;41.490;22.098;2022-08-03T11:22:17;5.43;;;1.80;;
70825;SDS011;58446;41.490;22.098;2022-08-03T11:27:27;5.28;;;1.80;;
70825;SDS011;58446;41.490;22.098;2022-08-03T11:30:03;5.65;;;1.80;;
70825;SDS011;58446;41.490;22.098;2022-08-03T11:35:15;4.70;;;1.48;;
70825;SDS011;58446;41.490;22.098;2022-08-03T11:38:14;5.85;;;1.73;;
70825;SDS011;58446;41.490;22.098;2022-08-03T11:43:04;4.50;;;1.70;;
70825;SDS011;58446;41.490;22.098;2022-08-03T11:45:31;4.30;;;1.40;;
70825;SDS011;58446;41.490;22.098;2022-08-03T11:47:57;4.68;;;1.65;;
70825;SDS011;58446;41.490;22.098;2022-08-03T11:50:26;5.95;;;1.63;;
70825;SDS011;58446;41.490;22.098;2022-08-03T11:53:00;4.78;;;1.73;;
70825;SDS011;58446;41.490;22.098;2022-08-03T11:55:29;5.10;;;1.67;;
70825;SDS011;58446;41.490;22.098;2022-08-03T11:57:57;4.97;;;1.35;;
70825;SDS011;58446;41.490;22.098;2022-08-03T12:00:25;5.03;;;1.80;;
70825;SDS011;58446;41.490;22.098;2022-08-03T12:02:56;5.93;;;1.30;;
70825;SDS011;58446;41.490;22.098;2022-08-03T12:08:08;4.70;;;1.75;;
70825;SDS011;58446;41.490;22.098;2022-08-03T12:10:36;4.40;;;1.58;;
70825;SDS011;58446;41.490;22.098;2022-08-03T12:13:03;5.03;;;1.30;;
70825;SDS011;58446;41.490;22.098;2022-08-03T12:15:31;4.00;;;1.30;;
70825;SDS011;58446;41.490;22.098;2022-08-03T12:18:01;4.47;;;1.38;;
70825;SDS011;58446;41.490;22.098;2022-08-03T12:20:29;4.85;;;2.13;;
70825;SDS011;58446;41.490;22.098;2022-08-03T12:23:05;4.80;;;1.30;;
70825;SDS011;58446;41.490;22.098;2022-08-03T12:25:31;5.07;;;1.52;;
70825;SDS011;58446;41.490;22.098;2022-08-03T12:28:08;4.10;;;0.93;;
70825;SDS011;58446;41.490;22.098;2022-08-03T12:30:35;4.10;;;0.93;;
70825;SDS011;58446;41.490;22.098;2022-08-03T12:33:12;4.20;;;1.10;;
70825;SDS011;58446;41.490;22.098;2022-08-03T12:35:38;4.45;;;1.50;;
70825;SDS011;58446;41.490;22.098;2022-08-03T12:38:04;5.10;;;1.90;;
70825;SDS011;58446;41.490;22.098;2022-08-03T12:40:30;4.72;;;1.25;;
70825;SDS011;58446;41.490;22.098;2022-08-03T12:42:56;6.55;;;1.60;;
70825;SDS011;58446;41.490;22.098;2022-08-03T12:45:23;5.30;;;1.87;;
70825;SDS011;58446;41.490;22.098;2022-08-03T12:47:51;4.40;;;1.40;;
70825;SDS011;58446;41.490;22.098;2022-08-03T12:50:30;4.50;;;1.30;;
70825;SDS011;58446;41.490;22.098;2022-08-03T12:52:57;4.00;;;1.10;;
70825;SDS011;58446;41.490;22.098;2022-08-03T12:55:24;4.30;;;1.13;;
70825;SDS011;58446;41.490;22.098;2022-08-03T12:58:00;4.07;;;1.17;;
70825;SDS011;58446;41.490;22.098;2022-08-03T13:00:27;6.30;;;1.70;;
70825;SDS011;58446;41.490;22.098;2022-08-03T13:02:58;4.40;;;1.45;;
70825;SDS011;58446;41.490;22.098;2022-08-03T13:05:25;5.03;;;1.50;;
70825;SDS011;58446;41.490;22.098;2022-08-03T13:07:51;4.50;;;1.20;;
70825;SDS011;58446;41.490;22.098;2022-08-03T13:10:29;4.53;;;1.50;;
70825;SDS011;58446;41.490;22.098;2022-08-03T13:12:57;4.68;;;1.10;;
70825;SDS011;58446;41.490;22.098;2022-08-03T13:15:27;4.30;;;1.10;;
70825;SDS011;58446;41.490;22.098;2022-08-03T13:17:56;3.58;;;0.82;;
70825;SDS011;58446;41.490;22.098;2022-08-03T13:20:22;3.60;;;0.77;;
70825;SDS011;58446;41.490;22.098;2022-08-03T13:22:48;4.57;;;1.30;;
70825;SDS011;58446;41.490;22.098;2022-08-03T13:25:14;4.50;;;1.13;;
70825;SDS011;58446;41.490;22.098;2022-08-03T13:27:40;4.30;;;0.95;;
70825;SDS011;58446;41.490;22.098;2022-08-03T13:30:06;4.17;;;0.80;;
70825;SDS011;58446;41.490;22.098;2022-08-03T13:32:33;4.35;;;0.95;;
70825;SDS011;58446;41.490;22.098;2022-08-03T13:34:59;4.75;;;1.17;;
70825;SDS011;58446;41.490;22.098;2022-08-03T13:37:26;4.47;;;1.35;;
70825;SDS011;58446;41.490;22.098;2022-08-03T13:39:52;5.00;;;1.23;;
70825;SDS011;58446;41.490;22.098;2022-08-03T13:42:18;3.78;;;1.10;;
70825;SDS011;58446;41.490;22.098;2022-08-03T13:44:44;4.72;;;1.25;;
70825;SDS011;58446;41.490;22.098;2022-08-03T13:47:10;4.50;;;1.10;;
70825;SDS011;58446;41.490;22.098;2022-08-03T13:49:36;4.90;;;1.03;;
70825;SDS011;58446;41.490;22.098;2022-08-03T13:52:02;4.53;;;1.48;;
70825;SDS011;58446;41.490;22.098;2022-08-03T13:54:28;4.20;;;1.52;;
70825;SDS011;58446;41.490;22.098;2022-08-03T13:56:54;4.80;;;1.20;;
70825;SDS011;58446;41.490;22.098;2022-08-03T13:59:21;4.70;;;1.60;;
70825;SDS011;58446;41.490;22.098;2022-08-03T14:01:48;5.65;;;1.20;;
70825;SDS011;58446;41.490;22.098;2022-08-03T14:04:14;5.53;;;1.30;;
70825;SDS011;58446;41.490;22.098;2022-08-03T14:06:41;3.92;;;0.80;;
70825;SDS011;58446;41.490;22.098;2022-08-03T14:09:09;3.70;;;1.00;;
70825;SDS011;58446;41.490;22.098;2022-08-03T14:11:38;4.55;;;1.52;;
70825;SDS011;58446;41.490;22.098;2022-08-03T14:14:05;4.10;;;1.30;;
70825;SDS011;58446;41.490;22.098;2022-08-03T14:16:30;3.92;;;1.08;;
70825;SDS011;58446;41.490;22.098;2022-08-03T14:18:56;4.13;;;1.33;;
70825;SDS011;58446;41.490;22.098;2022-08-03T14:21:22;6.30;;;1.43;;
70825;SDS011;58446;41.490;22.098;2022-08-03T14:23:47;4.70;;;1.23;;
70825;SDS011;58446;41.490;22.098;2022-08-03T14:26:13;4.50;;;1.35;;
70825;SDS011;58446;41.490;22.098;2022-08-03T14:28:39;5.93;;;1.23;;
70825;SDS011;58446;41.490;22.098;2022-08-03T14:31:05;6.10;;;1.33;;
70825;SDS011;58446;41.490;22.098;2022-08-03T14:33:31;4.50;;;1.20;;
70825;SDS011;58446;41.490;22.098;2022-08-03T14:35:57;4.73;;;1.30;;
70825;SDS011;58446;41.490;22.098;2022-08-03T14:38:22;4.00;;;1.13;;
70825;SDS011;58446;41.490;22.098;2022-08-03T14:40:48;4.30;;;1.20;;
70825;SDS011;58446;41.490;22.098;2022-08-03T14:43:14;4.75;;;1.33;;
70825;SDS011;58446;41.490;22.098;2022-08-03T14:45:42;4.20;;;1.40;;
70825;SDS011;58446;41.490;22.098;2022-08-03T14:48:07;4.00;;;1.20;;
70825;SDS011;58446;41.490;22.098;2022-08-03T14:50:33;5.50;;;1.52;;
70825;SDS011;58446;41.490;22.098;2022-08-03T14:52:59;4.78;;;1.55;;
70825;SDS011;58446;41.490;22.098;2022-08-03T14:55:25;3.80;;;0.97;;
70825;SDS011;58446;41.490;22.098;2022-08-03T14:57:50;4.30;;;1.20;;
70825;SDS011;58446;41.490;22.098;2022-08-03T15:00:16;4.28;;;1.30;;
70825;SDS011;58446;41.490;22.098;2022-08-03T15:02:42;4.72;;;1.20;;
70825;SDS011;58446;41.490;22.098;2022-08-03T15:05:08;5.77;;;1.50;;
70825;SDS011;58446;41.490;22.098;2022-08-03T15:07:36;7.00;;;2.15;;
70825;SDS011;58446;41.490;22.098;2022-08-03T15:10:02;4.43;;;1.38;;
70825;SDS011;58446;41.490;22.098;2022-08-03T15:12:29;6.65;;;1.80;;
70825;SDS011;58446;41.490;22.098;2022-08-03T15:14:54;4.17;;;1.60;;
70825;SDS011;58446;41.490;22.098;2022-08-03T15:17:20;6.55;;;2.08;;
70825;SDS011;58446;41.490;22.098;2022-08-03T15:19:46;5.07;;;1.67;;
70825;SDS011;58446;41.490;22.098;2022-08-03T15:22:12;4.18;;;1.52;;
70825;SDS011;58446;41.490;22.098;2022-08-03T15:24:40;4.53;;;1.65;;
70825;SDS011;58446;41.490;22.098;2022-08-03T15:27:06;4.47;;;1.27;;